createdAt,value
2023-04-02T00:00:35.539Z,36.41
2023-04-02T00:01:35.575Z,43.16
2023-04-02T00:02:35.688Z,35.37
2023-04-02T00:03:35.652Z,33.98
2023-04-02T00:04:35.576Z,35.77
2023-04-02T00:05:35.791Z,41.20
2023-04-02T00:06:35.601Z,43.04
2023-04-02T00:07:35.617Z,36.88
2023-04-02T00:08:35.638Z,39.16
2023-04-02T00:09:35.643Z,43.08
2023-04-02T00:10:35.646Z,45.94
2023-04-02T00:11:35.678Z,39.30
2023-04-02T00:12:35.695Z,36.65
2023-04-02T00:13:35.697Z,43.79
2023-04-02T00:14:35.713Z,39.40
2023-04-02T00:15:36.019Z,40.40
2023-04-02T00:16:35.740Z,33.11
2023-04-02T00:17:35.768Z,33.68
2023-04-02T00:18:35.760Z,37.35
2023-04-02T00:19:35.785Z,39.98
2023-04-02T00:20:35.793Z,35.55
2023-04-02T00:21:36.181Z,34.48
2023-04-02T00:22:35.798Z,34.38
2023-04-02T00:23:35.794Z,34.63
2023-04-02T00:24:35.799Z,35.89
2023-04-02T00:25:36.062Z,36.96
2023-04-02T00:26:35.803Z,37.17
2023-04-02T00:27:35.796Z,44.93
2023-04-02T00:28:35.820Z,35.65
2023-04-02T00:29:35.791Z,40.20
2023-04-02T00:30:35.786Z,33.92
2023-04-02T00:31:35.813Z,39.86
2023-04-02T00:32:35.811Z,43.30
2023-04-02T00:33:35.803Z,35.54
2023-04-02T00:34:35.792Z,29.70
2023-04-02T00:35:36.065Z,38.07
2023-04-02T00:36:35.822Z,41.50
2023-04-02T00:37:35.790Z,39.32
2023-04-02T00:38:35.789Z,33.27
2023-04-02T00:39:35.800Z,31.57
2023-04-02T00:40:35.787Z,32.76
2023-04-02T00:41:35.797Z,28.72
2023-04-02T00:42:35.801Z,31.01
2023-04-02T00:43:35.811Z,33.86
2023-04-02T00:44:35.808Z,36.10
2023-04-02T00:45:35.982Z,36.33
2023-04-02T00:46:35.806Z,33.61
2023-04-02T00:47:35.896Z,33.68
2023-04-02T00:48:35.808Z,31.53
2023-04-02T00:49:35.811Z,33.21
2023-04-02T00:50:35.819Z,34.15
2023-04-02T00:51:35.797Z,34.82
2023-04-02T00:52:35.789Z,30.63
2023-04-02T00:53:35.787Z,30.26
2023-04-02T00:54:35.790Z,35.36
2023-04-02T00:55:36.228Z,31.39
2023-04-02T00:56:35.817Z,35.71
2023-04-02T00:57:35.880Z,34.75
2023-04-02T00:58:35.864Z,32.75
2023-04-02T00:59:35.958Z,33.63
2023-04-02T01:00:35.890Z,29.63
2023-04-02T01:01:35.958Z,29.81
2023-04-02T01:02:36.011Z,30.04
2023-04-02T01:03:36.401Z,30.50
2023-04-02T01:04:35.931Z,31.77
2023-04-02T01:05:36.187Z,32.13
2023-04-02T01:06:35.947Z,30.21
2023-04-02T01:07:35.930Z,30.68
2023-04-02T01:08:35.932Z,31.85
2023-04-02T01:09:35.931Z,33.01
2023-04-02T01:10:35.976Z,34.99
2023-04-02T01:11:35.915Z,36.11
2023-04-02T01:12:35.936Z,32.44
2023-04-02T01:13:35.921Z,34.05
2023-04-02T01:14:35.944Z,30.09
2023-04-02T01:15:36.211Z,31.47
2023-04-02T01:16:35.945Z,32.57
2023-04-02T01:17:35.965Z,32.23
2023-04-02T01:18:35.987Z,31.87
2023-04-02T01:19:35.962Z,37.37
2023-04-02T01:20:35.952Z,31.40
2023-04-02T01:21:35.949Z,27.68
2023-04-02T01:22:35.951Z,31.08
2023-04-02T01:23:35.965Z,30.90
2023-04-02T01:24:35.970Z,31.02
2023-04-02T01:25:36.218Z,31.70
2023-04-02T01:26:35.982Z,32.99
2023-04-02T01:27:35.978Z,30.57
2023-04-02T01:28:35.987Z,31.31
2023-04-02T01:29:35.991Z,32.70
2023-04-02T01:30:36.021Z,29.86
2023-04-02T01:31:36.104Z,32.43
2023-04-02T01:32:36.017Z,27.59
2023-04-02T01:33:36.029Z,28.02
2023-04-02T01:34:36.019Z,29.26
2023-04-02T01:35:36.313Z,29.19
2023-04-02T01:36:36.038Z,28.11
2023-04-02T01:37:36.064Z,28.95
2023-04-02T01:38:36.028Z,31.17
2023-04-02T01:39:36.034Z,27.81
2023-04-02T01:40:36.029Z,30.96
2023-04-02T01:41:36.023Z,33.76
2023-04-02T01:42:36.021Z,28.17
2023-04-02T01:43:36.029Z,31.29
2023-04-02T01:44:36.044Z,28.66
2023-04-02T01:45:36.212Z,31.09
2023-04-02T01:46:36.096Z,28.35
2023-04-02T01:47:36.041Z,28.65
2023-04-02T01:48:36.017Z,29.06
2023-04-02T01:49:36.023Z,30.70
2023-04-02T01:50:36.008Z,28.63
2023-04-02T01:51:35.994Z,29.13
2023-04-02T01:52:35.990Z,29.90
2023-04-02T01:53:35.993Z,29.92
2023-04-02T01:54:35.987Z,29.99
2023-04-02T01:55:36.426Z,33.92
2023-04-02T01:56:35.994Z,29.90
2023-04-02T01:57:36.011Z,30.42
2023-04-02T01:58:35.970Z,32.12
2023-04-02T01:59:35.958Z,27.50
2023-04-02T02:00:36.001Z,31.47
2023-04-02T02:01:35.933Z,26.27
2023-04-02T02:02:36.070Z,29.73
2023-04-02T02:03:35.933Z,29.73
2023-04-02T02:04:35.927Z,30.17
2023-04-02T02:05:36.103Z,32.74
2023-04-02T02:06:35.938Z,31.53
2023-04-02T02:07:35.904Z,27.60
2023-04-02T02:08:35.913Z,30.82
2023-04-02T02:09:35.900Z,28.25
2023-04-02T02:10:35.902Z,29.98
2023-04-02T02:11:35.900Z,31.98
2023-04-02T02:12:35.926Z,31.37
2023-04-02T02:13:35.934Z,31.45
2023-04-02T02:14:35.904Z,30.59
2023-04-02T02:15:36.123Z,31.04
2023-04-02T02:16:35.897Z,28.33
2023-04-02T02:17:35.899Z,29.03
2023-04-02T02:18:35.881Z,30.85
2023-04-02T02:19:35.880Z,32.39
2023-04-02T02:20:35.886Z,31.78
2023-04-02T02:21:35.898Z,29.30
2023-04-02T02:22:35.936Z,29.47
2023-04-02T02:23:35.925Z,28.37
2023-04-02T02:24:35.977Z,28.93
2023-04-02T02:25:36.311Z,26.68
2023-04-02T02:26:35.980Z,29.69
2023-04-02T02:27:35.993Z,32.67
2023-04-02T02:28:36.024Z,30.87
2023-04-02T02:29:36.047Z,31.94
2023-04-02T02:30:36.074Z,31.62
2023-04-02T02:31:36.092Z,26.59
2023-04-02T02:32:36.151Z,32.37
2023-04-02T02:33:36.110Z,30.20
2023-04-02T02:34:36.136Z,28.93
2023-04-02T02:35:36.340Z,29.73
2023-04-02T02:36:36.164Z,28.66
2023-04-02T02:37:36.182Z,27.30
2023-04-02T02:38:36.235Z,31.02
2023-04-02T02:39:36.249Z,32.54
2023-04-02T02:40:36.273Z,30.80
2023-04-02T02:41:36.272Z,28.80
2023-04-02T02:42:36.308Z,31.07
2023-04-02T02:43:36.312Z,30.94
2023-04-02T02:44:36.366Z,29.21
2023-04-02T02:45:36.695Z,27.55
2023-04-02T02:46:36.380Z,33.27
2023-04-02T02:47:36.442Z,30.85
2023-04-02T02:48:36.386Z,26.68
2023-04-02T02:49:36.409Z,31.43
2023-04-02T02:50:36.417Z,28.33
2023-04-02T02:51:36.424Z,30.83
2023-04-02T02:52:36.427Z,30.45
2023-04-02T02:53:36.480Z,30.51
2023-04-02T02:54:36.455Z,30.75
2023-04-02T02:55:36.819Z,29.10
2023-04-02T02:56:36.499Z,30.64
2023-04-02T02:57:36.533Z,28.14
2023-04-02T02:58:36.531Z,31.13
2023-04-02T02:59:36.537Z,32.38
2023-04-02T03:00:36.570Z,28.94
2023-04-02T03:01:36.594Z,26.55
2023-04-02T03:02:36.815Z,29.07
2023-04-02T03:03:36.724Z,27.52
2023-04-02T03:04:36.622Z,30.87
2023-04-02T03:05:36.831Z,28.89
2023-04-02T03:06:36.654Z,31.32
2023-04-02T03:07:36.670Z,27.76
2023-04-02T03:08:36.687Z,29.46
2023-04-02T03:09:36.709Z,29.17
2023-04-02T03:10:36.726Z,30.23
2023-04-02T03:11:36.743Z,30.49
2023-04-02T03:12:36.774Z,28.32
2023-04-02T03:13:36.764Z,28.24
2023-04-02T03:14:36.793Z,28.52
2023-04-02T03:15:36.924Z,31.04
2023-04-02T03:16:36.845Z,30.16
2023-04-02T03:17:36.950Z,29.60
2023-04-02T03:18:36.860Z,30.00
2023-04-02T03:19:36.874Z,29.97
2023-04-02T03:20:36.919Z,29.15
2023-04-02T03:21:36.911Z,26.42
2023-04-02T03:22:36.936Z,28.22
2023-04-02T03:23:36.992Z,29.34
2023-04-02T03:24:36.970Z,32.39
2023-04-02T03:25:37.197Z,29.40
2023-04-02T03:26:37.006Z,32.02
2023-04-02T03:27:37.030Z,27.87
2023-04-02T03:28:37.051Z,30.71
2023-04-02T03:29:37.080Z,30.44
2023-04-02T03:30:37.101Z,28.76
2023-04-02T03:31:37.192Z,30.72
2023-04-02T03:32:37.148Z,27.33
2023-04-02T03:33:37.139Z,27.60
2023-04-02T03:34:37.142Z,28.03
2023-04-02T03:35:37.409Z,29.33
2023-04-02T03:36:37.172Z,29.13
2023-04-02T03:37:37.144Z,29.07
2023-04-02T03:38:37.152Z,31.33
2023-04-02T03:39:37.157Z,28.24
2023-04-02T03:40:37.166Z,30.91
2023-04-02T03:41:37.164Z,27.31
2023-04-02T03:42:37.181Z,30.24
2023-04-02T03:43:37.180Z,32.47
2023-04-02T03:44:37.193Z,31.55
2023-04-02T03:45:37.362Z,30.86
2023-04-02T03:46:37.259Z,28.46
2023-04-02T03:47:37.287Z,32.49
2023-04-02T03:48:37.195Z,32.01
2023-04-02T03:49:37.199Z,30.18
2023-04-02T03:50:37.236Z,29.71
2023-04-02T03:51:37.229Z,27.56
2023-04-02T03:52:37.215Z,25.73
2023-04-02T03:53:37.222Z,27.46
2023-04-02T03:54:37.222Z,27.66
2023-04-02T03:55:37.491Z,27.82
2023-04-02T03:56:37.240Z,27.76
2023-04-02T03:57:37.264Z,25.60
2023-04-02T03:58:37.235Z,25.58
2023-04-02T03:59:37.249Z,27.79
2023-04-02T04:00:37.254Z,28.16
2023-04-02T04:01:37.326Z,28.73
2023-04-02T04:02:37.288Z,31.38
2023-04-02T04:03:37.340Z,28.72
2023-04-02T04:04:37.246Z,28.20
2023-04-02T04:05:37.453Z,27.36
2023-04-02T04:06:37.264Z,25.81
2023-04-02T04:07:37.263Z,26.03
2023-04-02T04:08:37.266Z,26.44
2023-04-02T04:09:37.276Z,30.01
2023-04-02T04:10:37.274Z,27.51
2023-04-02T04:11:37.290Z,26.51
2023-04-02T04:12:37.291Z,25.20
2023-04-02T04:13:37.284Z,26.50
2023-04-02T04:14:37.286Z,27.23
2023-04-02T04:15:37.461Z,26.54
2023-04-02T04:16:37.362Z,26.02
2023-04-02T04:17:37.297Z,28.31
2023-04-02T04:18:37.288Z,26.51
2023-04-02T04:19:37.288Z,29.24
2023-04-02T04:20:37.288Z,25.64
2023-04-02T04:21:37.344Z,27.62
2023-04-02T04:22:37.314Z,26.44
2023-04-02T04:23:37.336Z,26.62
2023-04-02T04:24:37.326Z,27.68
2023-04-02T04:25:37.499Z,28.90
2023-04-02T04:26:37.330Z,26.19
2023-04-02T04:27:37.331Z,27.00
2023-04-02T04:28:37.338Z,27.91
2023-04-02T04:29:37.353Z,25.00
2023-04-02T04:30:37.376Z,26.42
2023-04-02T04:31:37.481Z,26.49
2023-04-02T04:32:37.445Z,27.50
2023-04-02T04:33:37.449Z,29.06
2023-04-02T04:34:37.466Z,27.50
2023-04-02T04:35:38.105Z,25.00
2023-04-02T04:36:37.503Z,27.00
2023-04-02T04:37:37.530Z,28.02
2023-04-02T04:38:37.561Z,27.03
2023-04-02T04:39:37.564Z,27.91
2023-04-02T04:40:37.591Z,26.75
2023-04-02T04:41:37.617Z,29.05
2023-04-02T04:42:37.636Z,28.99
2023-04-02T04:43:37.658Z,30.16
2023-04-02T04:44:37.686Z,30.97
2023-04-02T04:45:37.844Z,30.47
2023-04-02T04:46:37.714Z,28.06
2023-04-02T04:47:37.823Z,29.49
2023-04-02T04:48:37.765Z,25.43
2023-04-02T04:49:37.820Z,29.87
2023-04-02T04:50:37.842Z,29.83
2023-04-02T04:51:37.846Z,25.00
2023-04-02T04:52:37.868Z,26.76
2023-04-02T04:53:37.907Z,27.79
2023-04-02T04:54:37.941Z,29.74
2023-04-02T04:55:38.141Z,29.51
2023-04-02T04:56:38.028Z,27.48
2023-04-02T04:57:38.016Z,29.34
2023-04-02T04:58:38.043Z,28.24
2023-04-02T04:59:38.077Z,29.02
2023-04-02T05:00:38.108Z,28.13
2023-04-02T05:01:38.225Z,26.81
2023-04-02T05:02:38.185Z,28.47
2023-04-02T05:03:38.184Z,26.16
2023-04-02T05:04:38.233Z,26.32
2023-04-02T05:05:38.228Z,27.09
2023-04-02T05:06:38.281Z,25.99
2023-04-02T05:07:38.288Z,25.79
2023-04-02T05:08:38.330Z,25.69
2023-04-02T05:09:38.318Z,25.00
2023-04-02T05:10:38.351Z,27.26
2023-04-02T05:11:38.379Z,25.83
2023-04-02T05:12:38.380Z,28.92
2023-04-02T05:13:38.415Z,29.29
2023-04-02T05:14:38.432Z,29.05
2023-04-02T05:15:38.738Z,26.98
2023-04-02T05:16:38.561Z,27.09
2023-04-02T05:17:38.561Z,28.25
2023-04-02T05:18:38.532Z,28.61
2023-04-02T05:19:38.565Z,27.61
2023-04-02T05:20:38.594Z,27.53
2023-04-02T05:21:38.601Z,27.96
2023-04-02T05:22:40.882Z,26.72
2023-04-02T05:23:38.926Z,26.84
2023-04-02T05:24:38.912Z,26.82
2023-04-02T05:25:38.948Z,27.05
2023-04-02T05:26:38.970Z,27.11
2023-04-02T05:27:39.016Z,27.44
2023-04-02T05:28:39.082Z,30.23
2023-04-02T05:29:39.058Z,28.93
2023-04-02T05:30:39.095Z,28.87
2023-04-02T05:31:39.177Z,25.65
2023-04-02T05:32:39.212Z,25.78
2023-04-02T05:33:39.160Z,31.92
2023-04-02T05:34:39.202Z,27.31
2023-04-02T05:35:39.295Z,30.86
2023-04-02T05:36:39.239Z,29.27
2023-04-02T05:37:39.311Z,26.73
2023-04-02T05:38:39.306Z,29.02
2023-04-02T05:39:39.348Z,29.25
2023-04-02T05:40:39.374Z,26.10
2023-04-02T05:41:39.382Z,25.26
2023-04-02T05:42:39.412Z,31.74
2023-04-02T05:43:39.436Z,28.66
2023-04-02T05:44:39.460Z,28.24
2023-04-02T05:45:39.482Z,30.14
2023-04-02T05:46:39.573Z,25.89
2023-04-02T05:47:39.594Z,29.55
2023-04-02T05:48:39.569Z,27.77
2023-04-02T05:49:39.610Z,29.08
2023-04-02T05:50:39.627Z,29.34
2023-04-02T05:51:39.645Z,25.16
2023-04-02T05:52:39.681Z,28.65
2023-04-02T05:53:39.701Z,29.81
2023-04-02T05:54:39.710Z,28.35
2023-04-02T05:55:39.743Z,27.45
2023-04-02T05:56:39.752Z,29.89
2023-04-02T05:57:46.920Z,27.90
2023-04-02T05:58:42.560Z,27.98
2023-04-02T05:59:39.783Z,28.05
2023-04-02T06:00:39.792Z,28.71
2023-04-02T06:01:39.834Z,28.17
2023-04-02T06:02:39.915Z,27.64
2023-04-02T06:03:39.894Z,28.27
2023-04-02T06:04:39.818Z,27.04
2023-04-02T06:05:39.824Z,28.74
2023-04-02T06:06:39.840Z,29.40
2023-04-02T06:07:39.832Z,28.08
2023-04-02T06:08:39.832Z,25.00
2023-04-02T06:09:39.867Z,28.33
2023-04-02T06:10:39.842Z,27.15
2023-04-02T06:11:39.835Z,27.08
2023-04-02T06:12:39.838Z,28.71
2023-04-02T06:13:39.843Z,27.28
2023-04-02T06:14:39.843Z,29.11
2023-04-02T06:15:39.872Z,25.74
2023-04-02T06:16:39.923Z,31.79
2023-04-02T06:17:39.899Z,27.34
2023-04-02T06:18:39.873Z,27.55
2023-04-02T06:19:39.905Z,27.93
2023-04-02T06:20:39.916Z,28.73
2023-04-02T06:21:39.887Z,27.86
2023-04-02T06:22:39.903Z,27.70
2023-04-02T06:23:39.920Z,27.63
2023-04-02T06:24:39.894Z,26.13
2023-04-02T06:25:39.894Z,29.31
2023-04-02T06:26:39.895Z,27.68
2023-04-02T06:27:39.909Z,29.20
2023-04-02T06:28:39.912Z,27.70
2023-04-02T06:29:39.987Z,30.15
2023-04-02T06:30:39.957Z,28.91
2023-04-02T06:31:39.918Z,29.13
2023-04-02T06:32:39.953Z,26.95
2023-04-02T06:33:39.944Z,29.60
2023-04-02T06:34:39.932Z,28.62
2023-04-02T06:35:39.989Z,26.60
2023-04-02T06:36:39.950Z,27.72
2023-04-02T06:37:39.949Z,25.00
2023-04-02T06:38:39.944Z,26.25
2023-04-02T06:39:39.956Z,28.21
2023-04-02T06:40:39.967Z,28.44
2023-04-02T06:41:39.985Z,27.95
2023-04-02T06:42:40.047Z,27.28
2023-04-02T06:43:39.986Z,30.24
2023-04-02T06:44:40.021Z,33.05
2023-04-02T06:45:40.046Z,27.10
2023-04-02T06:46:40.092Z,28.79
2023-04-02T06:47:40.147Z,27.96
2023-04-02T06:48:40.094Z,29.83
2023-04-02T06:49:40.112Z,31.03
2023-04-02T06:50:40.137Z,30.65
2023-04-02T06:51:40.154Z,27.90
2023-04-02T06:52:40.330Z,27.36
2023-04-02T06:53:40.200Z,27.22
2023-04-02T06:54:40.218Z,30.51
2023-04-02T06:55:40.299Z,26.77
2023-04-02T06:56:40.258Z,27.12
2023-04-02T06:57:41.899Z,26.87
2023-04-02T06:58:40.440Z,27.69
2023-04-02T06:59:40.477Z,28.98
2023-04-02T07:00:40.502Z,30.10
2023-04-02T07:01:40.557Z,25.69
2023-04-02T07:02:40.532Z,29.76
2023-04-02T07:03:40.580Z,27.18
2023-04-02T07:04:40.624Z,26.87
2023-04-02T07:05:42.548Z,29.83
2023-04-02T07:06:40.624Z,26.75
2023-04-02T07:07:40.660Z,27.24
2023-04-02T07:08:40.674Z,27.70
2023-04-02T07:09:40.692Z,29.50
2023-04-02T07:10:40.710Z,29.03
2023-04-02T07:11:40.742Z,25.15
2023-04-02T07:12:40.758Z,26.11
2023-04-02T07:13:40.795Z,28.47
2023-04-02T07:14:40.802Z,28.13
2023-04-02T07:15:40.830Z,28.54
2023-04-02T07:16:40.850Z,28.59
2023-04-02T07:17:40.891Z,28.62
2023-04-02T07:18:40.893Z,29.95
2023-04-02T07:19:40.900Z,28.13
2023-04-02T07:20:40.920Z,28.73
2023-04-02T07:21:40.928Z,29.92
2023-04-02T07:22:40.969Z,30.63
2023-04-02T07:23:40.980Z,30.66
2023-04-02T07:24:40.991Z,33.35
2023-04-02T07:25:41.016Z,32.45
2023-04-02T07:26:41.020Z,32.27
2023-04-02T07:27:41.042Z,33.66
2023-04-02T07:28:41.066Z,33.99
2023-04-02T07:29:41.078Z,35.68
2023-04-02T07:30:41.090Z,33.88
2023-04-02T07:31:41.173Z,36.21
2023-04-02T07:32:41.154Z,35.43
2023-04-02T07:33:42.170Z,35.00
2023-04-02T07:34:41.255Z,36.28
2023-04-02T07:35:41.201Z,35.92
2023-04-02T07:36:41.170Z,36.21
2023-04-02T07:37:41.200Z,36.70
2023-04-02T07:38:41.184Z,37.54
2023-04-02T07:39:41.192Z,38.34
2023-04-02T07:40:41.180Z,40.84
2023-04-02T07:41:41.187Z,41.73
2023-04-02T07:42:41.187Z,40.73
2023-04-02T07:43:41.208Z,40.09
2023-04-02T07:44:41.188Z,45.18
2023-04-02T07:45:41.190Z,41.63
2023-04-02T07:46:41.219Z,44.12
2023-04-02T07:47:41.245Z,44.19
2023-04-02T07:48:41.215Z,43.69
2023-04-02T07:49:41.216Z,42.27
2023-04-02T07:50:41.215Z,41.34
2023-04-02T07:51:41.232Z,42.38
2023-04-02T07:52:41.227Z,43.47
2023-04-02T07:53:41.210Z,43.79
2023-04-02T07:54:41.197Z,44.07
2023-04-02T07:55:41.205Z,42.36
2023-04-02T07:56:41.232Z,42.61
2023-04-02T07:57:41.225Z,42.89
2023-04-02T07:58:41.232Z,43.36
2023-04-02T07:59:41.226Z,43.01
2023-04-02T08:00:41.213Z,46.70
2023-04-02T08:01:41.240Z,45.08
2023-04-02T08:02:41.235Z,47.27
2023-04-02T08:03:41.250Z,46.12
2023-04-02T08:04:41.201Z,45.34
2023-04-02T08:05:41.207Z,44.39
2023-04-02T08:06:41.209Z,47.47
2023-04-02T08:07:41.208Z,50.19
2023-04-02T08:08:41.217Z,46.16
2023-04-02T08:09:41.217Z,46.17
2023-04-02T08:10:41.197Z,43.97
2023-04-02T08:11:41.197Z,44.80
2023-04-02T08:12:41.200Z,44.95
2023-04-02T08:13:41.197Z,43.89
2023-04-02T08:14:41.186Z,44.34
2023-04-02T08:15:41.199Z,45.08
2023-04-02T08:16:41.285Z,44.20
2023-04-02T08:17:41.241Z,44.91
2023-04-02T08:18:41.210Z,43.28
2023-04-02T08:19:53.754Z,43.24
2023-04-02T08:20:42.207Z,43.43
2023-04-02T08:21:41.180Z,43.70
2023-04-02T08:22:41.198Z,43.54
2023-04-02T08:23:41.180Z,43.56
2023-04-02T08:24:41.182Z,42.15
2023-04-02T08:25:41.187Z,43.32
2023-04-02T08:26:41.936Z,43.47
2023-04-02T08:27:41.175Z,43.53
2023-04-02T08:28:41.194Z,44.03
2023-04-02T08:29:41.214Z,42.97
2023-04-02T08:30:41.232Z,45.32
2023-04-02T08:31:41.160Z,39.36
2023-04-02T08:32:41.249Z,43.65
2023-04-02T08:33:41.164Z,44.43
2023-04-02T08:34:41.153Z,40.26
2023-04-02T08:35:41.179Z,41.18
2023-04-02T08:36:41.156Z,37.98
2023-04-02T08:37:41.156Z,40.89
2023-04-02T08:38:41.159Z,40.71
2023-04-02T08:39:41.208Z,38.41
2023-04-02T08:40:41.161Z,42.99
2023-04-02T08:41:41.156Z,38.94
2023-04-02T08:42:41.143Z,39.10
2023-04-02T08:43:41.144Z,39.16
2023-04-02T08:44:41.145Z,39.31
2023-04-02T08:45:41.326Z,41.28
2023-04-02T08:46:41.143Z,42.43
2023-04-02T08:47:41.197Z,41.34
2023-04-02T08:48:42.574Z,41.19
2023-04-02T08:49:41.147Z,40.02
2023-04-02T08:50:41.157Z,40.46
2023-04-02T08:51:41.143Z,37.82
2023-04-02T08:52:41.136Z,41.68
2023-04-02T08:53:41.155Z,38.26
2023-04-02T08:54:41.134Z,39.04
2023-04-02T08:55:41.125Z,40.27
2023-04-02T08:56:41.121Z,38.40
2023-04-02T08:57:41.122Z,36.30
2023-04-02T08:58:41.102Z,36.40
2023-04-02T08:59:41.101Z,37.92
2023-04-02T09:00:41.097Z,41.14
2023-04-02T09:01:41.120Z,41.19
2023-04-02T09:02:41.143Z,41.30
2023-04-02T09:03:41.097Z,39.64
2023-04-02T09:04:41.182Z,38.85
2023-04-02T09:05:41.108Z,38.47
2023-04-02T09:06:41.102Z,41.26
2023-04-02T09:07:41.104Z,39.02
2023-04-02T09:08:41.102Z,40.85
2023-04-02T09:09:41.107Z,40.01
2023-04-02T09:10:41.123Z,40.19
2023-04-02T09:11:41.099Z,40.09
2023-04-02T09:12:42.314Z,41.46
2023-04-02T09:13:41.128Z,41.07
2023-04-02T09:14:41.096Z,39.26
2023-04-02T09:15:41.096Z,39.62
2023-04-02T09:16:41.078Z,40.86
2023-04-02T09:17:52.885Z,44.30
2023-04-02T09:18:42.143Z,44.32
2023-04-02T09:19:41.092Z,44.33
2023-04-02T09:20:41.060Z,43.98
2023-04-02T09:21:41.059Z,44.85
2023-04-02T09:22:41.062Z,43.33
2023-04-02T09:23:41.062Z,41.47
2023-04-02T09:24:41.071Z,42.62
2023-04-02T09:25:41.365Z,39.94
2023-04-02T09:26:41.045Z,44.37
2023-04-02T09:27:41.053Z,43.64
2023-04-02T09:28:41.046Z,41.38
2023-04-02T09:29:41.045Z,41.22
2023-04-02T09:30:41.126Z,41.85
2023-04-02T09:31:41.246Z,41.75
2023-04-02T09:32:41.266Z,40.67
2023-04-02T09:33:41.347Z,43.79
2023-04-02T09:34:41.294Z,43.49
2023-04-02T09:35:41.476Z,44.03
2023-04-02T09:36:41.327Z,44.73
2023-04-02T09:37:41.290Z,40.88
2023-04-02T09:38:41.296Z,39.59
2023-04-02T09:39:41.302Z,38.52
2023-04-02T09:40:41.321Z,39.26
2023-04-02T09:41:41.305Z,41.16
2023-04-02T09:42:41.303Z,43.29
2023-04-02T09:43:41.337Z,39.20
2023-04-02T09:44:41.428Z,37.16
2023-04-02T09:45:41.450Z,37.06
2023-04-02T09:46:41.502Z,41.15
2023-04-02T09:47:42.274Z,42.40
2023-04-02T09:48:41.590Z,42.34
2023-04-02T09:49:41.620Z,42.54
2023-04-02T09:50:41.670Z,39.33
2023-04-02T09:51:41.721Z,42.35
2023-04-02T09:52:41.763Z,38.67
2023-04-02T09:53:42.539Z,38.79
2023-04-02T09:54:41.865Z,41.13
2023-04-02T09:55:41.851Z,39.30
2023-04-02T09:56:41.841Z,36.98
2023-04-02T09:57:41.820Z,36.81
2023-04-02T09:58:41.820Z,36.68
2023-04-02T09:59:41.830Z,35.46
2023-04-02T10:00:42.265Z,32.49
2023-04-02T10:01:41.861Z,33.39
2023-04-02T10:02:41.895Z,37.66
2023-04-02T10:03:41.914Z,36.68
2023-04-02T10:04:42.086Z,37.63
2023-04-02T10:05:41.982Z,35.19
2023-04-02T10:06:41.992Z,35.79
2023-04-02T10:07:42.027Z,35.53
2023-04-02T10:08:42.062Z,34.29
2023-04-02T10:09:42.109Z,36.57
2023-04-02T10:10:42.118Z,33.27
2023-04-02T10:11:46.601Z,33.78
2023-04-02T10:12:42.145Z,33.95
2023-04-02T10:13:42.124Z,31.95
2023-04-02T10:14:42.134Z,34.24
2023-04-02T10:15:42.116Z,34.39
2023-04-02T10:16:42.189Z,34.16
2023-04-02T10:17:42.158Z,34.21
2023-04-02T10:18:42.107Z,31.46
2023-04-02T10:19:42.140Z,30.98
2023-04-02T10:20:51.008Z,32.46
2023-04-02T10:21:43.116Z,32.62
2023-04-02T10:22:42.077Z,32.72
2023-04-02T10:23:42.066Z,32.75
2023-04-02T10:24:42.060Z,31.63
2023-04-02T10:25:42.062Z,33.92
2023-04-02T10:26:42.062Z,32.41
2023-04-02T10:27:42.033Z,32.98
2023-04-02T10:28:42.045Z,31.69
2023-04-02T10:29:42.030Z,32.27
2023-04-02T10:30:42.056Z,28.47
2023-04-02T10:31:42.064Z,30.79
2023-04-02T10:32:42.051Z,31.10
2023-04-02T10:33:41.997Z,27.41
2023-04-02T10:34:43.109Z,31.36
2023-04-02T10:35:42.048Z,32.36
2023-04-02T10:36:42.042Z,31.39
2023-04-02T10:37:42.077Z,31.72
2023-04-02T10:38:42.114Z,30.78
2023-04-02T10:39:42.146Z,31.58
2023-04-02T10:40:42.232Z,30.97
2023-04-02T10:41:42.195Z,31.07
2023-04-02T10:42:42.192Z,31.64
2023-04-02T10:43:42.191Z,32.27
2023-04-02T10:44:42.203Z,33.09
2023-04-02T10:45:42.246Z,31.05
2023-04-02T10:46:42.306Z,34.46
2023-04-02T10:47:42.229Z,32.41
2023-04-02T10:48:42.190Z,33.11
2023-04-02T10:49:42.205Z,30.79
2023-04-02T10:50:42.207Z,30.22
2023-04-02T10:51:42.207Z,32.73
2023-04-02T10:52:42.274Z,32.14
2023-04-02T10:53:42.347Z,30.01
2023-04-02T10:54:42.427Z,30.26
2023-04-02T10:55:42.495Z,33.01
2023-04-02T10:56:50.733Z,33.95
2023-04-02T10:57:43.601Z,34.05
2023-04-02T10:58:42.565Z,34.29
2023-04-02T10:59:42.570Z,35.29
2023-04-02T11:00:42.564Z,33.56
2023-04-02T11:01:42.553Z,32.56
2023-04-02T11:02:42.599Z,33.61
2023-04-02T11:03:42.720Z,33.99
2023-04-02T11:04:42.546Z,32.43
2023-04-02T11:05:42.524Z,33.60
2023-04-02T11:06:42.526Z,30.78
2023-04-02T11:07:42.511Z,31.56
2023-04-02T11:08:42.526Z,29.87
2023-04-02T11:09:42.588Z,30.97
2023-04-02T11:10:42.638Z,35.54
2023-04-02T11:11:42.741Z,33.61
2023-04-02T11:12:42.778Z,34.93
2023-04-02T11:13:42.870Z,32.98
2023-04-02T11:14:42.826Z,33.41
2023-04-02T11:15:42.938Z,34.67
2023-04-02T11:16:44.653Z,35.37
2023-04-02T11:17:43.009Z,33.37
2023-04-02T11:18:43.041Z,34.90
2023-04-02T11:19:43.101Z,35.34
2023-04-02T11:20:43.197Z,32.70
2023-04-02T11:21:57.347Z,34.47
2023-04-02T11:22:44.221Z,34.56
2023-04-02T11:23:43.256Z,33.37
2023-04-02T11:24:43.204Z,32.97
2023-04-02T11:25:43.209Z,31.50
2023-04-02T11:26:43.202Z,33.88
2023-04-02T11:27:43.203Z,34.95
2023-04-02T11:28:43.189Z,33.17
2023-04-02T11:29:43.166Z,32.96
2023-04-02T11:30:43.178Z,33.21
2023-04-02T11:31:43.326Z,33.48
2023-04-02T11:32:43.246Z,33.88
2023-04-02T11:33:44.988Z,33.24
2023-04-02T11:34:43.167Z,33.18
2023-04-02T11:35:43.214Z,33.87
2023-04-02T11:36:43.155Z,34.26
2023-04-02T11:37:43.158Z,34.51
2023-04-02T11:38:43.147Z,35.31
2023-04-02T11:39:43.144Z,33.16
2023-04-02T11:40:43.135Z,37.31
2023-04-02T11:41:43.128Z,34.42
2023-04-02T11:42:43.145Z,34.43
2023-04-02T11:43:43.132Z,34.69
2023-04-02T11:44:43.143Z,35.33
2023-04-02T11:45:51.835Z,36.92
2023-04-02T11:46:44.176Z,34.79
2023-04-02T11:47:43.131Z,35.31
2023-04-02T11:48:43.121Z,37.43
2023-04-02T11:49:43.124Z,38.01
2023-04-02T11:50:43.137Z,38.56
2023-04-02T11:51:43.121Z,37.81
2023-04-02T11:52:43.123Z,36.96
2023-04-02T11:53:43.137Z,37.16
2023-04-02T11:54:43.111Z,38.46
2023-04-02T11:55:43.148Z,38.83
2023-04-02T11:56:43.156Z,39.58
2023-04-02T11:57:43.186Z,39.75
2023-04-02T11:58:43.262Z,38.79
2023-04-02T11:59:43.337Z,35.78
2023-04-02T12:00:43.521Z,37.39
2023-04-02T12:01:43.502Z,37.61
2023-04-02T12:02:43.566Z,37.86
2023-04-02T12:03:43.538Z,37.80
2023-04-02T12:04:43.676Z,37.51
2023-04-02T12:05:43.814Z,39.49
2023-04-02T12:06:43.766Z,36.11
2023-04-02T12:07:43.830Z,37.29
2023-04-02T12:08:56.643Z,35.46
2023-04-02T12:09:44.899Z,35.63
2023-04-02T12:10:43.908Z,36.32
2023-04-02T12:11:43.891Z,36.65
2023-04-02T12:12:43.894Z,36.86
2023-04-02T12:13:43.882Z,37.83
2023-04-02T12:14:43.908Z,38.02
2023-04-02T12:15:43.880Z,37.78
2023-04-02T12:16:43.910Z,37.95
2023-04-02T12:17:43.911Z,37.83
2023-04-02T12:18:43.913Z,38.57
2023-04-02T12:19:43.907Z,36.39
2023-04-02T12:20:43.909Z,37.17
2023-04-02T12:21:43.944Z,39.02
2023-04-02T12:22:44.017Z,36.99
2023-04-02T12:23:44.082Z,36.80
2023-04-02T12:24:44.144Z,39.37
2023-04-02T12:25:44.210Z,40.55
2023-04-02T12:26:44.288Z,41.55
2023-04-02T12:27:44.315Z,40.55
2023-04-02T12:28:44.368Z,37.93
2023-04-02T12:29:44.418Z,35.76
2023-04-02T12:30:44.486Z,39.01
2023-04-02T12:31:44.499Z,37.79
2023-04-02T12:32:44.515Z,36.97
2023-04-02T12:33:44.508Z,37.89
2023-04-02T12:34:44.535Z,39.23
2023-04-02T12:35:44.674Z,39.60
2023-04-02T12:36:44.686Z,39.54
2023-04-02T12:37:44.703Z,43.68
2023-04-02T12:38:44.775Z,40.47
2023-04-02T12:39:44.822Z,40.38
2023-04-02T12:40:44.871Z,42.71
2023-04-02T12:41:44.900Z,39.91
2023-04-02T12:42:44.918Z,38.88
2023-04-02T12:43:44.898Z,40.66
2023-04-02T12:44:44.926Z,41.54
2023-04-02T12:45:44.932Z,42.33
2023-04-02T12:46:44.935Z,40.29
2023-04-02T12:47:45.038Z,42.55
2023-04-02T12:48:45.097Z,44.41
2023-04-02T12:49:45.141Z,41.93
2023-04-02T12:50:45.101Z,42.10
2023-04-02T12:51:45.103Z,42.42
2023-04-02T12:52:45.118Z,43.50